Time;durP1;ratioP1;P1;durP2;ratioP2;P2;SDS_P1;SDS_P2;PMS_P1;PMS_P2;Temp;Humidity;BMP_temperature;BMP_pressure;BME280_temperature;BME280_humidity;BME280_pressure;Samples;Min_cycle;Max_cycle;Signal;HPM_P1;HPM_P2
2021/12/28 01:23:19;;;;;;;19.40;10.35;;;;;;;4.15;100.00;93643.47;5494421;22;20110;-83
2021/12/28 01:25:45;;;;;;;20.48;11.30;;;;;;;4.20;100.00;93636.53;4996869;28;20031;-83
2021/12/28 01:28:10;;;;;;;19.80;10.90;;;;;;;4.04;100.00;93638.22;4996120;28;20030;-83
2021/12/28 01:30:39;;;;;;;15.48;9.32;;;;;;;4.23;100.00;93645.66;4980283;28;20030;-83
2021/12/28 01:33:05;;;;;;;16.10;9.25;;;;;;;4.22;100.00;93642.25;4996092;28;20053;-83
2021/12/28 01:35:31;;;;;;;33.45;10.85;;;;;;;3.88;100.00;93633.91;4996155;28;20084;-83
2021/12/28 01:37:57;;;;;;;34.20;12.02;;;;;;;3.71;100.00;93650.28;4997078;28;20061;-83
2021/12/28 01:40:27;;;;;;;18.58;10.52;;;;;;;3.71;100.00;93649.50;4979804;28;20030;-83
2021/12/28 01:43:14;;;;;;;25.58;12.63;;;;;;;3.67;100.00;93654.38;4996342;28;20030;-83
2021/12/28 01:45:41;;;;;;;21.52;11.68;;;;;;;3.64;100.00;93660.06;5012212;28;20030;-83
2021/12/28 01:48:08;;;;;;;54.28;12.35;;;;;;;3.79;100.00;93662.03;4995789;28;20026;-83
2021/12/28 01:50:33;;;;;;;438.63;24.92;;;;;;;3.80;100.00;93659.22;4995854;28;20018;-83
2021/12/28 01:52:59;;;;;;;519.20;30.70;;;;;;;3.82;100.00;93656.38;4995795;28;20208;-83
2021/12/28 01:55:25;;;;;;;133.05;14.45;;;;;;;3.88;100.00;93649.44;4995782;28;20026;-83
2021/12/28 01:57:50;;;;;;;543.63;33.25;;;;;;;3.84;100.00;93658.72;4995813;28;20438;-83
2021/12/28 02:00:17;;;;;;;602.85;39.05;;;;;;;3.70;100.00;93653.13;4996167;28;20022;-83
2021/12/28 02:02:42;;;;;;;142.18;14.27;;;;;;;3.65;100.00;93653.84;4996077;28;20113;-83
2021/12/28 02:05:08;;;;;;;247.77;17.48;;;;;;;3.86;100.00;93651.47;4995855;28;20519;-83
2021/12/28 02:07:33;;;;;;;456.67;29.10;;;;;;;3.86;100.00;93651.47;4996185;28;20038;-83
2021/12/28 02:09:59;;;;;;;451.55;27.27;;;;;;;3.81;100.00;93653.00;4997380;28;20076;-83
2021/12/28 02:12:28;;;;;;;148.20;15.02;;;;;;;3.87;100.00;93653.03;4979789;28;20061;-83
2021/12/28 02:14:54;;;;;;;30.38;10.85;;;;;;;4.05;100.00;93641.56;4996379;28;20113;-83
2021/12/28 02:17:19;;;;;;;118.40;13.85;;;;;;;3.98;100.00;93641.00;4995865;28;20022;-83
2021/12/28 02:19:45;;;;;;;78.85;10.40;;;;;;;3.93;100.00;93632.13;4997361;28;20105;-83
2021/12/28 02:22:10;;;;;;;50.00;12.32;;;;;;;4.02;100.00;93632.50;4996251;28;20041;-83
2021/12/28 02:24:35;;;;;;;19.98;9.43;;;;;;;4.17;100.00;93633.69;4995890;28;20427;-83
2021/12/28 02:27:01;;;;;;;728.92;40.45;;;;;;;3.79;100.00;93631.72;4997484;28;20069;-83
2021/12/28 02:29:26;;;;;;;646.40;40.78;;;;;;;3.62;100.00;93623.25;4995850;28;20034;-83
2021/12/28 02:31:55;;;;;;;732.67;51.55;;;;;;;3.55;100.00;93631.19;4997344;28;20034;-83
2021/12/28 02:34:24;;;;;;;180.75;14.18;;;;;;;3.52;100.00;93623.91;4997279;28;20371;-83
2021/12/28 02:36:50;;;;;;;16.88;9.68;;;;;;;3.84;100.00;93631.00;4996196;28;20034;-83
2021/12/28 02:39:16;;;;;;;386.70;26.30;;;;;;;3.98;100.00;93623.63;4996119;28;20034;-83
2021/12/28 02:41:41;;;;;;;293.23;23.13;;;;;;;3.94;100.00;93625.16;4996043;28;20058;-83
2021/12/28 02:44:07;;;;;;;392.08;22.60;;;;;;;3.72;100.00;93619.97;4995741;28;20033;-83
2021/12/28 02:46:33;;;;;;;28.23;8.48;;;;;;;3.96;100.00;93620.50;4996095;28;20034;-83
2021/12/28 02:48:58;;;;;;;60.10;10.50;;;;;;;4.10;100.00;93619.09;4995639;28;20098;-83
2021/12/28 02:51:23;;;;;;;16.95;8.75;;;;;;;4.20;100.00;93618.38;5001045;28;20088;-83
2021/12/28 02:53:49;;;;;;;422.02;22.23;;;;;;;3.90;100.00;93616.28;5000928;28;20030;-83
2021/12/28 02:56:16;;;;;;;282.33;16.60;;;;;;;3.71;100.00;93606.22;5000862;28;20052;-83
2021/12/28 02:58:45;;;;;;;458.25;28.25;;;;;;;3.72;100.00;93599.25;5000775;28;20022;-83
2021/12/28 03:01:20;;;;;;;348.70;19.80;;;;;;;3.76;100.00;93611.50;5000833;28;20034;-83
2021/12/28 03:03:48;;;;;;;510.58;33.00;;;;;;;3.65;100.00;93602.81;5000556;28;20030;-83
2021/12/28 03:06:18;;;;;;;340.60;23.27;;;;;;;3.72;100.00;93594.84;4999248;28;20034;-83
2021/12/28 03:08:49;;;;;;;430.10;29.73;;;;;;;3.56;100.00;93587.94;4999008;28;20029;-83
2021/12/28 03:11:15;;;;;;;27.50;8.95;;;;;;;3.65;100.00;93578.72;4999460;28;20037;-83
2021/12/28 03:13:42;;;;;;;481.48;28.20;;;;;;;3.72;100.00;93578.53;4999101;28;20465;-83
2021/12/28 03:16:09;;;;;;;446.73;28.67;;;;;;;3.62;100.00;93577.38;4999106;28;20080;-83
2021/12/28 03:18:35;;;;;;;438.88;29.45;;;;;;;3.50;100.00;93574.94;4999256;28;20030;-83
2021/12/28 03:21:01;;;;;;;419.40;23.80;;;;;;;3.61;100.00;93564.69;4998994;28;20038;-83
2021/12/28 03:23:27;;;;;;;318.88;26.58;;;;;;;3.39;100.00;93575.84;4998857;28;20037;-83
2021/12/28 03:25:53;;;;;;;277.25;21.00;;;;;;;3.31;100.00;93571.09;4999003;28;20026;-83
2021/12/28 03:28:24;;;;;;;34.92;10.43;;;;;;;3.47;100.00;93564.28;4999854;28;20073;-83
2021/12/28 03:30:52;;;;;;;145.38;16.02;;;;;;;3.59;100.00;93564.16;4982568;28;20026;-83
2021/12/28 03:33:19;;;;;;;162.52;15.57;;;;;;;3.74;100.00;93560.94;5000281;28;20379;-83
2021/12/28 03:35:45;;;;;;;505.98;28.35;;;;;;;3.80;100.00;93549.56;5000136;28;20048;-83
2021/12/28 03:38:11;;;;;;;32.17;10.93;;;;;;;3.86;100.00;93547.81;4998892;28;20041;-83
2021/12/28 03:40:36;;;;;;;251.68;19.33;;;;;;;3.78;100.00;93547.25;4982623;28;20026;-83
2021/12/28 03:43:02;;;;;;;21.65;10.77;;;;;;;3.97;100.00;93559.84;4998927;28;20068;-83
2021/12/28 03:45:27;;;;;;;539.00;35.33;;;;;;;3.97;100.00;93552.06;4998756;28;20028;-83
2021/12/28 03:47:53;;;;;;;61.47;10.85;;;;;;;4.14;100.00;93548.59;4998359;28;20034;-83
2021/12/28 03:50:25;;;;;;;69.43;9.40;;;;;;;4.04;100.00;93551.88;4998716;28;20505;-83
2021/12/28 03:52:54;;;;;;;283.25;19.17;;;;;;;3.95;100.00;93559.31;4998534;28;20157;-83
2021/12/28 03:55:21;;;;;;;309.70;18.55;;;;;;;3.89;100.00;93553.31;4998340;28;20034;-83
2021/12/28 03:57:47;;;;;;;17.52;9.13;;;;;;;4.05;100.00;93543.06;4998478;28;20030;-83
2021/12/28 04:00:14;;;;;;;355.88;23.88;;;;;;;3.93;100.00;93544.00;4998277;28;20035;-83
2021/12/28 04:02:40;;;;;;;136.68;12.70;;;;;;;3.87;100.00;93547.59;4998560;28;20359;-83
2021/12/28 04:05:06;;;;;;;263.33;18.38;;;;;;;3.69;100.00;93559.06;4998408;28;20117;-83
2021/12/28 04:07:32;;;;;;;106.28;10.95;;;;;;;3.69;100.00;93564.25;4997977;28;20436;-83
2021/12/28 04:10:00;;;;;;;126.28;11.80;;;;;;;3.74;100.00;93569.50;4998401;28;20112;-83
2021/12/28 04:12:27;;;;;;;94.65;11.13;;;;;;;3.53;100.00;93569.25;4998074;28;20030;-83
2021/12/28 04:14:52;;;;;;;64.90;9.98;;;;;;;3.71;100.00;93582.91;4998273;28;20034;-83
2021/12/28 04:17:18;;;;;;;228.30;18.52;;;;;;;3.55;100.00;93594.94;4998188;28;20355;-83
2021/12/28 04:19:43;;;;;;;147.70;11.68;;;;;;;3.59;100.00;93605.59;4999356;28;20343;-83
2021/12/28 04:22:09;;;;;;;129.60;10.45;;;;;;;3.56;100.00;93606.06;4997822;28;20440;-83
2021/12/28 04:24:35;;;;;;;19.58;7.63;;;;;;;3.76;100.00;93615.88;4998008;28;20101;-83
2021/12/28 04:27:00;;;;;;;80.72;9.25;;;;;;;3.73;100.00;93614.56;4997647;28;20038;-83
2021/12/28 04:29:26;;;;;;;244.95;19.50;;;;;;;3.25;100.00;93622.78;4997924;28;20093;-83
2021/12/28 04:31:51;;;;;;;140.27;13.80;;;;;;;3.38;100.00;93616.50;4997617;28;20027;-83
2021/12/28 04:34:17;;;;;;;33.38;9.00;;;;;;;3.38;100.00;93611.31;4997543;28;20084;-83
2021/12/28 04:36:42;;;;;;;156.30;12.80;;;;;;;3.52;100.00;93606.56;4998939;28;20428;-83
2021/12/28 04:39:08;;;;;;;108.25;11.43;;;;;;;3.50;100.00;93607.81;4997309;28;20038;-83
2021/12/28 04:41:34;;;;;;;141.05;11.23;;;;;;;3.43;100.00;93618.34;4998752;28;20092;-83
2021/12/28 04:44:01;;;;;;;180.77;12.35;;;;;;;3.51;100.00;93622.31;4998937;28;20119;-83
2021/12/28 04:46:27;;;;;;;386.70;20.52;;;;;;;3.45;100.00;93623.28;4997670;28;20034;-83
2021/12/28 04:48:53;;;;;;;17.98;6.32;;;;;;;3.52;100.00;93614.31;4995719;28;20049;-83
2021/12/28 04:51:18;;;;;;;56.97;8.73;;;;;;;3.33;100.00;93620.84;4998799;28;20439;-83
2021/12/28 04:53:44;;;;;;;27.25;7.32;;;;;;;3.50;100.00;93626.72;4981251;28;20033;-83
2021/12/28 04:56:11;;;;;;;46.17;8.02;;;;;;;3.62;100.00;93625.84;4997442;28;20034;-83
2021/12/28 04:58:36;;;;;;;293.83;17.42;;;;;;;3.52;100.00;93619.50;4998253;28;20022;-83
2021/12/28 05:01:02;;;;;;;20.25;7.80;;;;;;;3.69;100.00;93626.44;4997214;28;20348;-83
2021/12/28 05:03:27;;;;;;;167.02;14.13;;;;;;;3.59;100.00;93636.69;4998153;28;20026;-83
2021/12/28 05:05:53;;;;;;;40.83;9.68;;;;;;;3.65;100.00;93638.31;4998492;28;20026;-83
2021/12/28 05:08:20;;;;;;;415.50;26.98;;;;;;;3.64;100.00;93629.72;4997142;28;20030;-83
2021/12/28 05:10:46;;;;;;;17.23;7.55;;;;;;;3.65;100.00;93620.16;4997020;28;20398;-84
2021/12/28 05:13:12;;;;;;;129.73;11.85;;;;;;;3.78;100.00;93630.16;4996169;28;20104;-83
2021/12/28 05:15:38;;;;;;;173.80;13.15;;;;;;;3.77;100.00;93635.56;4980927;28;20439;-83
2021/12/28 05:18:04;;;;;;;567.55;38.28;;;;;;;3.44;100.00;93625.09;4996668;28;20026;-83
2021/12/28 05:20:30;;;;;;;139.77;10.30;;;;;;;3.60;100.00;93607.16;4997013;28;20040;-83
2021/12/28 05:22:55;;;;;;;441.70;22.90;;;;;;;3.67;100.00;93603.38;4996860;28;20038;-83
2021/12/28 05:25:21;;;;;;;521.97;32.75;;;;;;;3.38;100.00;93595.00;4997021;28;20065;-83
2021/12/28 05:27:46;;;;;;;337.58;18.25;;;;;;;3.23;100.00;93598.97;4996509;28;20031;-83
2021/12/28 05:30:13;;;;;;;635.83;40.83;;;;;;;3.27;100.00;93614.00;4980718;28;20030;-83
2021/12/28 05:32:38;;;;;;;35.72;9.05;;;;;;;3.50;100.00;93610.41;4996431;28;20080;-83
2021/12/28 05:35:06;;;;;;;18.48;8.70;;;;;;;3.54;100.00;93614.09;4980673;28;20026;-83
2021/12/28 05:37:31;;;;;;;393.38;23.35;;;;;;;3.45;100.00;93623.28;4996289;28;20332;-83
2021/12/28 05:39:57;;;;;;;219.48;16.35;;;;;;;3.35;100.00;93629.91;4980497;28;20037;-83
2021/12/28 05:42:23;;;;;;;177.85;14.30;;;;;;;3.52;100.00;93622.09;4996601;28;20339;-83
2021/12/28 05:44:48;;;;;;;530.17;31.10;;;;;;;3.34;100.00;93619.81;4996664;28;20160;-83
2021/12/28 05:47:13;;;;;;;268.52;18.27;;;;;;;3.21;100.00;93615.75;4997688;28;20034;-83
2021/12/28 05:49:39;;;;;;;68.18;9.38;;;;;;;3.31;100.00;93615.88;4996627;28;20088;-83
2021/12/28 05:52:05;;;;;;;12.82;7.38;;;;;;;3.50;100.00;93620.75;4997699;28;20426;-83
2021/12/28 05:54:31;;;;;;;55.75;9.07;;;;;;;3.52;100.00;93622.09;4996524;28;20105;-83
2021/12/28 05:56:56;;;;;;;24.50;7.50;;;;;;;3.34;100.00;93609.44;4996160;28;20038;-83
2021/12/28 05:59:22;;;;;;;23.80;8.20;;;;;;;3.52;100.00;93600.59;4997410;28;20105;-83
2021/12/28 06:01:47;;;;;;;92.05;10.95;;;;;;;3.43;100.00;93602.03;4996446;28;20061;-83
2021/12/28 06:04:13;;;;;;;69.93;10.52;;;;;;;3.49;100.00;93588.91;4997599;28;20038;-83
2021/12/28 06:06:38;;;;;;;55.25;9.30;;;;;;;3.56;100.00;93596.50;4996144;28;20030;-83
2021/12/28 06:09:04;;;;;;;271.92;18.88;;;;;;;3.36;100.00;93595.22;4996159;28;20053;-83
2021/12/28 06:11:30;;;;;;;359.15;19.92;;;;;;;3.35;100.00;93595.47;4996280;28;20036;-83
2021/12/28 06:13:55;;;;;;;379.63;21.75;;;;;;;3.33;100.00;93613.06;4979732;28;20370;-83
2021/12/28 06:16:20;;;;;;;16.88;8.45;;;;;;;3.20;100.00;93616.75;4997484;28;20074;-83
2021/12/28 06:18:46;;;;;;;88.47;9.65;;;;;;;3.36;100.00;93623.69;4996154;28;20065;-83
2021/12/28 06:21:11;;;;;;;132.60;12.25;;;;;;;3.35;100.00;93609.19;4996565;28;20106;-83
2021/12/28 06:23:37;;;;;;;21.65;7.20;;;;;;;3.36;100.00;93603.00;4998398;28;20042;-83
2021/12/28 06:26:03;;;;;;;49.47;8.85;;;;;;;2.99;100.00;93606.16;5001468;28;20443;-83
2021/12/28 06:28:28;;;;;;;80.82;10.80;;;;;;;2.85;100.00;93602.34;5000016;28;20034;-83
2021/12/28 06:30:54;;;;;;;64.47;9.02;;;;;;;2.95;100.00;93612.84;5000234;28;20038;-83
2021/12/28 06:33:20;;;;;;;111.80;11.60;;;;;;;2.87;100.00;93606.25;5000012;28;20320;-83
2021/12/28 06:35:46;;;;;;;738.03;36.00;;;;;;;2.85;100.00;93608.28;4999856;28;20030;-83
2021/12/28 06:38:12;;;;;;;116.22;11.82;;;;;;;2.82;100.00;93621.69;4999620;28;20022;-83
2021/12/28 06:40:37;;;;;;;221.13;16.45;;;;;;;2.96;100.00;93617.00;5000016;28;20451;-83
2021/12/28 06:43:03;;;;;;;307.77;20.13;;;;;;;2.82;100.00;93611.34;4999720;28;20038;-83
2021/12/28 06:45:28;;;;;;;1114.80;62.13;;;;;;;2.76;100.00;93617.47;4999718;28;20038;-83
2021/12/28 06:47:54;;;;;;;14.45;8.50;;;;;;;2.99;100.00;93618.28;4999484;28;20116;-83
2021/12/28 06:50:19;;;;;;;28.30;8.55;;;;;;;3.06;100.00;93621.50;4999772;28;20034;-83
2021/12/28 06:52:45;;;;;;;69.20;12.18;;;;;;;2.69;100.00;93608.06;5001287;28;20049;-83
2021/12/28 06:55:10;;;;;;;422.98;22.85;;;;;;;2.83;100.00;93613.69;4983485;28;20128;-83
2021/12/28 06:57:36;;;;;;;212.52;15.57;;;;;;;2.90;100.00;93621.31;4999566;28;20034;-83
2021/12/28 07:00:05;;;;;;;46.97;9.52;;;;;;;3.09;100.00;93614.06;5000487;28;20030;-83
2021/12/28 07:02:31;;;;;;;62.53;9.20;;;;;;;2.94;100.00;93617.22;4999953;28;20058;-83
2021/12/28 07:04:56;;;;;;;248.30;15.73;;;;;;;2.89;100.00;93613.75;4999669;28;20115;-83
2021/12/28 07:07:22;;;;;;;87.65;9.20;;;;;;;2.86;100.00;93620.19;4999222;28;20050;-83
2021/12/28 07:09:47;;;;;;;114.32;10.98;;;;;;;2.82;100.00;93608.75;4999533;28;20030;-83
2021/12/28 07:12:13;;;;;;;203.50;12.77;;;;;;;2.96;100.00;93617.75;4999200;28;20435;-83
2021/12/28 07:14:38;;;;;;;20.67;7.72;;;;;;;3.21;100.00;93626.91;4999417;28;20038;-83
2021/12/28 07:17:04;;;;;;;134.05;10.85;;;;;;;2.97;100.00;93621.91;5000432;28;20037;-83
2021/12/28 07:19:29;;;;;;;95.50;10.15;;;;;;;3.02;100.00;93623.78;5000265;28;20117;-82
2021/12/28 07:21:55;;;;;;;16.98;7.45;;;;;;;3.19;100.00;93621.19;4999015;28;20038;-83
2021/12/28 07:24:21;;;;;;;34.40;7.75;;;;;;;3.33;100.00;93626.00;5000003;28;20443;-83
2021/12/28 07:26:46;;;;;;;22.02;6.13;;;;;;;3.38;100.00;93621.69;4982617;28;20037;-83
2021/12/28 07:29:12;;;;;;;151.48;13.82;;;;;;;2.97;100.00;93610.78;4999026;28;20359;-82
2021/12/28 07:31:38;;;;;;;22.25;6.57;;;;;;;3.18;100.00;93621.41;4993967;28;20035;-83
2021/12/28 07:34:04;;;;;;;52.47;7.22;;;;;;;3.00;100.00;93627.63;4990978;28;20042;-83
2021/12/28 07:36:29;;;;;;;361.05;18.23;;;;;;;2.83;100.00;93631.81;4998253;28;20038;-83
2021/12/28 07:38:55;;;;;;;483.02;23.88;;;;;;;3.01;100.00;93635.16;4998537;28;20321;-83
2021/12/28 07:41:21;;;;;;;214.95;13.60;;;;;;;3.10;100.00;93627.78;4998486;28;20440;-83
2021/12/28 07:43:47;;;;;;;21.40;6.30;;;;;;;3.25;100.00;93640.91;4998537;28;20038;-83
2021/12/28 07:46:14;;;;;;;214.45;14.27;;;;;;;3.29;100.00;93638.66;4998605;28;20044;-83
2021/12/28 07:48:41;;;;;;;17.15;6.45;;;;;;;3.46;100.00;93645.56;4998624;28;20467;-82
2021/12/28 07:51:07;;;;;;;43.30;5.60;;;;;;;3.44;100.00;93647.63;4997545;28;20422;-82
2021/12/28 07:53:33;;;;;;;129.05;9.57;;;;;;;3.41;100.00;93648.13;4987803;28;20038;-82
2021/12/28 07:55:59;;;;;;;111.82;8.82;;;;;;;3.09;100.00;93639.94;4999665;28;20038;-82
2021/12/28 07:58:25;;;;;;;170.88;11.27;;;;;;;3.46;100.00;93650.75;4998108;28;20495;-82
2021/12/28 08:00:51;;;;;;;52.60;7.25;;;;;;;3.44;100.00;93650.22;4998291;28;20407;-85
2021/12/28 08:03:19;;;;;;;281.27;17.35;;;;;;;3.04;100.00;93657.97;4998182;28;20046;-82
2021/12/28 08:05:44;;;;;;;313.55;19.95;;;;;;;2.99;100.00;93662.28;4998411;28;20042;-83
2021/12/28 08:08:10;;;;;;;525.72;26.48;;;;;;;2.88;100.00;93664.75;4981940;28;20061;-82
2021/12/28 08:10:35;;;;;;;99.30;9.85;;;;;;;3.07;100.00;93652.31;4994185;28;20092;-82
2021/12/28 08:13:00;;;;;;;471.02;31.23;;;;;;;2.81;100.00;93653.75;5008880;28;20046;-82
2021/12/28 08:15:27;;;;;;;558.50;35.95;;;;;;;2.67;100.00;93658.47;5017625;28;20057;-83
2021/12/28 08:17:52;;;;;;;599.10;41.72;;;;;;;2.63;100.00;93663.31;5017436;28;20152;-83
2021/12/28 08:20:18;;;;;;;498.30;34.63;;;;;;;2.58;100.00;93665.81;5001115;28;20045;-82
2021/12/28 08:22:48;;;;;;;28.13;6.85;;;;;;;2.87;100.00;93670.16;5017514;28;20049;-82
2021/12/28 08:25:16;;;;;;;449.05;29.08;;;;;;;3.07;100.00;93664.50;4994039;28;20049;-82
2021/12/28 08:27:42;;;;;;;317.65;19.42;;;;;;;3.17;100.00;93669.03;4997708;28;20436;-82
2021/12/28 08:30:09;;;;;;;219.95;16.85;;;;;;;3.42;100.00;93658.22;4992771;28;20043;-82
2021/12/28 08:32:36;;;;;;;591.95;39.95;;;;;;;2.93;100.00;93651.06;4996984;28;20038;-82
2021/12/28 08:35:02;;;;;;;38.85;7.93;;;;;;;3.02;100.00;93649.66;4997805;28;20428;-82
2021/12/28 08:37:27;;;;;;;510.67;30.45;;;;;;;3.06;100.00;93660.34;4998702;28;20027;-82
2021/12/28 08:39:53;;;;;;;179.23;11.75;;;;;;;3.10;100.00;93664.81;4998893;28;20065;-82
2021/12/28 08:42:21;;;;;;;62.22;10.13;;;;;;;3.57;100.00;93667.22;4998821;28;20045;-82
2021/12/28 08:44:47;;;;;;;72.80;7.55;;;;;;;3.37;100.00;93673.69;4997785;28;20045;-82
2021/12/28 08:47:12;;;;;;;230.18;19.63;;;;;;;3.25;100.00;93673.81;4995879;28;20042;-82
2021/12/28 08:49:38;;;;;;;124.85;9.18;;;;;;;2.86;100.00;93674.53;4997540;28;20038;-82
2021/12/28 08:52:04;;;;;;;149.32;10.35;;;;;;;3.05;100.00;93672.47;4997475;28;20034;-82
2021/12/28 08:54:33;;;;;;;108.00;8.88;;;;;;;3.29;100.00;93684.44;4998651;28;20060;-82
2021/12/28 08:56:59;;;;;;;184.23;12.45;;;;;;;3.33;100.00;93694.09;4997387;28;20093;-82
2021/12/28 08:59:25;;;;;;;13.48;6.28;;;;;;;3.62;100.00;93691.38;4997361;28;20466;-82
2021/12/28 09:01:50;;;;;;;194.35;12.23;;;;;;;3.52;100.00;93686.06;4981119;28;20030;-82
2021/12/28 09:04:17;;;;;;;27.70;6.18;;;;;;;3.85;100.00;93693.97;4987216;28;20047;-82
2021/12/28 09:06:43;;;;;;;22.15;5.70;;;;;;;3.99;100.00;93689.22;4977838;28;20432;-82
2021/12/28 09:09:08;;;;;;;9.60;5.95;;;;;;;4.26;100.00;93680.69;4977507;28;20054;-82
2021/12/28 09:11:34;;;;;;;108.78;8.88;;;;;;;4.21;100.00;93691.78;4977707;28;20039;-82
2021/12/28 09:13:59;;;;;;;287.60;16.10;;;;;;;4.31;100.00;93701.47;4982827;28;20076;-82
2021/12/28 09:16:25;;;;;;;12.57;6.85;;;;;;;4.81;100.00;93715.19;4986566;28;20046;-82
2021/12/28 09:18:50;;;;;;;1325.18;62.38;;;;;;;4.36;100.00;93704.13;4977483;28;20329;-82
2021/12/28 09:21:16;;;;;;;99.68;9.40;;;;;;;4.29;100.00;93719.88;4978870;28;20117;-82
2021/12/28 09:23:41;;;;;;;10.27;6.38;;;;;;;4.42;100.00;93721.31;4978718;28;20046;-82
2021/12/28 09:26:07;;;;;;;14.88;8.65;;;;;;;4.29;100.00;93717.28;4978771;28;20045;-82
2021/12/28 09:28:32;;;;;;;268.77;18.80;;;;;;;4.42;100.00;93723.09;5016189;28;20034;-81
2021/12/28 09:30:58;;;;;;;17.58;7.85;;;;;;;4.63;100.00;93727.47;5016397;28;20116;-82
2021/12/28 09:33:24;;;;;;;34.75;7.20;;;;;;;4.44;100.00;93702.88;5016127;28;20029;-82
2021/12/28 09:35:52;;;;;;;10.30;6.28;;;;;;;4.72;100.00;93683.69;5017493;28;20030;-82
2021/12/28 09:38:19;;;;;;;10.80;5.35;;;;;;;4.92;100.00;93685.69;5016339;28;20224;-82
2021/12/28 09:40:46;;;;;;;12.85;6.00;;;;;;;5.22;100.00;93673.94;5016298;28;20038;-83
2021/12/28 09:43:13;;;;;;;130.82;8.75;;;;;;;5.18;100.00;93679.88;5015953;28;20034;-82
2021/12/28 09:45:42;;;;;;;696.35;35.08;;;;;;;5.03;100.00;93678.75;5015900;28;20055;-82
2021/12/28 09:48:08;;;;;;;105.72;9.38;;;;;;;4.74;100.00;93699.03;5015628;28;20057;-82
2021/12/28 09:50:34;;;;;;;816.03;38.95;;;;;;;4.61;100.00;93705.41;5017354;28;20038;-82
2021/12/28 09:53:02;;;;;;;523.92;26.50;;;;;;;4.48;100.00;93704.75;5016066;28;20439;-82
2021/12/28 09:55:28;;;;;;;163.77;13.07;;;;;;;4.45;100.00;93707.84;5016028;28;20100;-83
2021/12/28 09:57:54;;;;;;;168.00;12.02;;;;;;;4.63;100.00;93706.72;5015628;28;20040;-83
2021/12/28 10:00:21;;;;;;;97.97;9.82;;;;;;;4.61;100.00;93695.81;5015563;28;20042;-83
2021/12/28 10:02:46;;;;;;;69.30;7.93;;;;;;;4.73;100.00;93698.25;5000046;28;20045;-83
2021/12/28 10:05:21;;;;;;;56.58;9.25;;;;;;;4.57;100.00;93686.94;4996322;28;20034;-83
2021/12/28 10:08:13;;;;;;;133.00;11.75;;;;;;;4.40;100.00;93676.69;4976828;28;20097;-83
2021/12/28 10:10:42;;;;;;;13.52;7.20;;;;;;;4.62;100.00;93679.22;4973766;28;20068;-83
2021/12/28 10:13:18;;;;;;;43.95;8.73;;;;;;;4.71;100.00;93670.97;4992863;28;20030;-83
2021/12/28 10:15:45;;;;;;;133.70;11.07;;;;;;;4.65;100.00;93657.16;4980088;28;20038;-83
2021/12/28 10:18:11;;;;;;;18.42;6.47;;;;;;;5.21;100.00;93640.41;4979634;28;20033;-83
2021/12/28 10:20:59;;;;;;;443.75;25.42;;;;;;;5.17;100.00;93634.97;4996202;28;20061;-83
2021/12/28 10:23:27;;;;;;;457.90;24.00;;;;;;;5.27;100.00;93647.22;4995970;28;20424;-83
2021/12/28 10:25:59;;;;;;;64.00;7.57;;;;;;;5.68;100.00;93622.47;4995958;28;20034;-83
2021/12/28 10:28:31;;;;;;;99.43;8.65;;;;;;;5.77;100.00;93621.72;4996031;28;20069;-83
2021/12/28 10:31:01;;;;;;;83.78;7.45;;;;;;;5.42;100.00;93632.75;4996081;28;20347;-83
2021/12/28 10:33:29;;;;;;;95.07;7.72;;;;;;;5.65;100.00;93618.56;4996109;28;20113;-83
2021/12/28 10:35:58;;;;;;;506.42;27.75;;;;;;;4.58;100.00;93628.06;4995971;28;20507;-83
2021/12/28 10:38:26;;;;;;;338.13;17.38;;;;;;;4.80;100.00;93622.78;4979751;28;20036;-83
2021/12/28 10:40:59;;;;;;;299.05;16.67;;;;;;;4.55;100.00;93615.59;4996400;28;20092;-83
2021/12/28 10:43:25;;;;;;;;;;;;;;;4.69;100.00;93618.53;4997417;28;20034;-83
2021/12/28 10:46:04;;;;;;;87.38;8.73;;;;;;;5.38;100.00;93622.88;4979672;28;19909;-84
2021/12/28 10:48:35;;;;;;;321.98;15.82;;;;;;;4.99;100.00;93622.38;4995630;28;20047;-83
2021/12/28 10:51:13;;;;;;;227.65;15.27;;;;;;;4.80;100.00;93623.53;4996033;28;20026;-83
2021/12/28 10:53:54;;;;;;;253.93;16.15;;;;;;;4.85;100.00;93629.81;4996066;28;20351;-83
2021/12/28 10:56:20;;;;;;;80.60;8.30;;;;;;;5.09;100.00;93631.03;4996941;28;20022;-84
2021/12/28 10:58:48;;;;;;;44.42;8.48;;;;;;;5.22;100.00;93635.00;4995362;28;20026;-83
2021/12/28 11:01:25;;;;;;;52.30;9.52;;;;;;;5.35;100.00;93635.56;4995724;28;20084;-83
2021/12/28 11:03:59;;;;;;;17.80;6.90;;;;;;;5.70;100.00;93631.56;4995694;28;20037;-83
2021/12/28 11:06:33;;;;;;;25.58;7.50;;;;;;;5.84;100.00;93637.09;4996379;28;20026;-82
2021/12/28 11:09:05;;;;;;;11.73;6.63;;;;;;;6.19;100.00;93638.25;4995016;28;20375;-82
2021/12/28 11:11:31;;;;;;;11.38;6.25;;;;;;;6.09;100.00;93643.41;4997755;28;20391;-82
2021/12/28 11:14:03;;;;;;;27.75;6.25;;;;;;;6.34;100.00;93649.72;5000207;28;20034;-83
2021/12/28 11:16:31;;;;;;;527.63;25.42;;;;;;;5.97;100.00;93653.25;5000073;28;20076;-83
2021/12/28 11:18:59;;;;;;;52.83;6.90;;;;;;;6.71;100.00;93634.91;4998720;28;20029;-83
2021/12/28 11:21:27;;;;;;;55.75;7.10;;;;;;;6.79;100.00;93621.38;4998941;28;20248;-83
2021/12/28 11:23:55;;;;;;;18.83;5.70;;;;;;;7.13;100.00;93613.00;4999205;28;20403;-83
2021/12/28 11:26:50;;;;;;;170.27;11.48;;;;;;;6.65;100.00;93614.09;4999251;28;20030;-83
2021/12/28 11:29:23;;;;;;;580.88;26.98;;;;;;;6.87;100.00;93618.25;4985125;28;20105;-83
2021/12/28 11:31:59;;;;;;;103.10;7.85;;;;;;;6.95;100.00;93623.97;4962981;28;20037;-83
2021/12/28 11:34:30;;;;;;;525.40;23.85;;;;;;;6.75;100.00;93633.38;4963386;28;20081;-85
2021/12/28 11:37:03;;;;;;;695.95;33.25;;;;;;;6.48;100.00;93629.97;4980656;28;20043;-85
2021/12/28 11:39:35;;;;;;;1039.97;62.90;;;;;;;5.48;100.00;93629.13;4963314;28;20022;-85
2021/12/28 11:42:02;;;;;;;470.67;22.67;;;;;;;5.35;100.00;93635.56;4998150;28;20045;-85
2021/12/28 11:44:29;;;;;;;730.63;37.60;;;;;;;5.66;100.00;93618.28;4999693;28;20073;-84
2021/12/28 11:46:56;;;;;;;906.28;59.20;;;;;;;5.40;100.00;93627.81;4998806;28;20038;-84
2021/12/28 11:49:26;;;;;;;34.45;7.20;;;;;;;6.29;100.00;93619.25;4998703;28;20534;-83
2021/12/28 11:51:52;;;;;;;858.92;47.20;;;;;;;6.15;100.00;93618.19;4999964;28;20058;-82
2021/12/28 11:54:20;;;;;;;14.65;5.97;;;;;;;7.31;100.00;93614.28;4998423;28;20069;-83
2021/12/28 11:56:50;;;;;;;441.92;22.08;;;;;;;7.45;100.00;93614.47;4998488;28;20148;-83
2021/12/28 11:59:25;;;;;;;10.05;5.97;;;;;;;7.42;100.00;93607.19;4998268;28;20029;-83
2021/12/28 12:01:51;;;;;;;601.13;31.35;;;;;;;7.19;100.00;93611.16;4998574;28;20399;-83
2021/12/28 12:04:32;;;;;;;138.45;17.30;;;;;;;7.56;100.00;93604.81;4999717;28;20038;-83
2021/12/28 12:07:01;;;;;;;219.23;26.15;;;;;;;8.04;100.00;93601.72;4999481;28;20038;-82
2021/12/28 12:09:27;;;;;;;56.75;19.70;;;;;;;8.16;100.00;93592.78;4999917;28;20335;-82
2021/12/28 12:12:07;;;;;;;215.55;16.77;;;;;;;8.06;100.00;93591.81;4998294;28;20033;-83
2021/12/28 12:14:54;;;;;;;261.48;14.73;;;;;;;7.58;100.00;93578.47;4999581;28;20034;-82
2021/12/28 12:17:28;;;;;;;211.30;12.93;;;;;;;7.12;100.00;93576.81;4998983;28;20061;-82
2021/12/28 12:20:06;;;;;;;792.55;41.78;;;;;;;6.85;100.00;93577.91;4991453;28;20034;-82
2021/12/28 12:22:31;;;;;;;536.90;22.45;;;;;;;6.76;100.00;93572.44;4979575;28;20060;-83
2021/12/28 12:25:07;;;;;;;1115.75;56.88;;;;;;;5.83;100.00;93572.34;4985940;28;20112;-82
2021/12/28 12:27:41;;;;;;;644.35;34.55;;;;;;;5.22;100.00;93577.06;4997956;28;20037;-82
2021/12/28 12:30:18;;;;;;;411.35;21.77;;;;;;;6.04;100.00;93578.41;4997648;28;20428;-82
2021/12/28 12:32:56;;;;;;;389.60;25.33;;;;;;;6.39;100.00;93581.28;4999058;28;20045;-82
2021/12/28 12:35:38;;;;;;;40.15;11.35;;;;;;;6.84;100.00;93568.53;4999070;28;20132;-83
2021/12/28 12:38:24;;;;;;;424.58;27.30;;;;;;;7.14;100.00;93565.06;4998966;28;20154;-82
2021/12/28 12:41:19;;;;;;;443.73;24.20;;;;;;;7.06;100.00;93552.59;4991762;28;20050;-82